Hornet, Missouri
Current Conditions -  °F | °C
As of 3:35 AM on Thursday 18 Dec 2014 (Local Time) from KGMJ Reporting Station
Drizzle Drizzle  
Wind Chill: 37°   Ceiling: 700
Heat Index: 37°   Visibility: 1.7mi
Dew Point: 37°   Wind: 0mph
Humidity: 100%   Direction: NA
Pressure: 30.19"   Gusts: NA
Location:  36.8382°N, 94.5361°W
Report Text: KGMJ 180935Z AUTO 00000KT 1 3/4SM -DZ VV007 03/03 A3019 RMK AO2 P0001
Loading
Personal Weather Stations






























Interactive Weather Map New forecast layout! Learn more

10-Day Weather Forecast

Advertisements
Track Severe Weather on mobile